sensor_id;sensor_type;location;lat;lon;timestamp;pressure;altitude;pressure_sealevel;temperature;humidity
71964;BME280;59834;52.124;5.422;2023-09-30T00:00:03;102500.44;;;11.14;100.00
71964;BME280;59834;52.124;5.422;2023-09-30T00:02:30;102503.91;;;11.15;100.00
71964;BME280;59834;52.124;5.422;2023-09-30T00:04:57;102502.13;;;11.15;100.00
71964;BME280;59834;52.124;5.422;2023-09-30T00:07:23;102506.66;;;11.12;100.00
71964;BME280;59834;52.124;5.422;2023-09-30T00:09:50;102510.13;;;11.12;100.00
71964;BME280;59834;52.124;5.422;2023-09-30T00:12:18;102519.81;;;11.10;100.00
71964;BME280;59834;52.124;5.422;2023-09-30T00:14:44;102514.59;;;11.10;100.00
71964;BME280;59834;52.124;5.422;2023-09-30T00:17:11;102507.63;;;11.09;100.00
71964;BME280;59834;52.124;5.422;2023-09-30T00:19:37;102507.56;;;11.11;100.00
71964;BME280;59834;52.124;5.422;2023-09-30T00:22:04;102505.72;;;11.13;100.00
71964;BME280;59834;52.124;5.422;2023-09-30T00:24:30;102514.44;;;11.13;100.00
71964;BME280;59834;52.124;5.422;2023-09-30T00:26:57;102505.84;;;11.09;100.00
71964;BME280;59834;52.124;5.422;2023-09-30T00:29:24;102512.13;;;11.05;100.00
71964;BME280;59834;52.124;5.422;2023-09-30T00:31:50;102508.66;;;11.05;100.00
71964;BME280;59834;52.124;5.422;2023-09-30T00:34:17;102516.50;;;11.05;100.00
71964;BME280;59834;52.124;5.422;2023-09-30T00:36:43;102507.84;;;11.03;100.00
71964;BME280;59834;52.124;5.422;2023-09-30T00:39:10;102516.63;;;11.02;100.00
71964;BME280;59834;52.124;5.422;2023-09-30T00:41:39;102523.69;;;11.00;100.00
71964;BME280;59834;52.124;5.422;2023-09-30T00:44:06;102532.44;;;11.00;100.00
71964;BME280;59834;52.124;5.422;2023-09-30T00:46:37;102533.19;;;11.02;100.00
71964;BME280;59834;52.124;5.422;2023-09-30T00:49:04;102531.44;;;11.03;100.00
71964;BME280;59834;52.124;5.422;2023-09-30T00:51:31;102544.66;;;11.00;100.00
71964;BME280;59834;52.124;5.422;2023-09-30T00:54:00;102541.03;;;11.04;100.00
71964;BME280;59834;52.124;5.422;2023-09-30T00:56:28;102546.31;;;11.02;100.00
71964;BME280;59834;52.124;5.422;2023-09-30T00:58:56;102552.38;;;11.03;100.00
71964;BME280;59834;52.124;5.422;2023-09-30T01:01:22;102547.22;;;11.01;100.00
71964;BME280;59834;52.124;5.422;2023-09-30T01:03:50;102540.28;;;11.00;100.00
71964;BME280;59834;52.124;5.422;2023-09-30T01:06:17;102538.63;;;10.98;100.00
71964;BME280;59834;52.124;5.422;2023-09-30T01:08:44;102543.13;;;10.94;100.00
71964;BME280;59834;52.124;5.422;2023-09-30T01:11:10;102554.66;;;10.90;100.00
71964;BME280;59834;52.124;5.422;2023-09-30T01:13:38;102548.72;;;10.85;100.00
71964;BME280;59834;52.124;5.422;2023-09-30T01:16:09;102551.44;;;10.82;100.00
71964;BME280;59834;52.124;5.422;2023-09-30T01:18:37;102548.88;;;10.80;100.00
71964;BME280;59834;52.124;5.422;2023-09-30T01:21:05;102552.41;;;10.79;100.00
71964;BME280;59834;52.124;5.422;2023-09-30T01:23:32;102544.66;;;10.76;100.00
71964;BME280;59834;52.124;5.422;2023-09-30T01:26:03;102562.25;;;10.73;100.00
71964;BME280;59834;52.124;5.422;2023-09-30T01:28:30;102566.63;;;10.72;100.00
71964;BME280;59834;52.124;5.422;2023-09-30T01:30:58;102564.88;;;10.73;100.00
71964;BME280;59834;52.124;5.422;2023-09-30T01:33:25;102582.25;;;10.75;100.00
71964;BME280;59834;52.124;5.422;2023-09-30T01:35:51;102569.97;;;10.77;100.00
71964;BME280;59834;52.124;5.422;2023-09-30T01:38:18;102566.38;;;10.80;100.00
71964;BME280;59834;52.124;5.422;2023-09-30T01:40:45;102562.72;;;10.84;100.00
71964;BME280;59834;52.124;5.422;2023-09-30T01:43:11;102563.56;;;10.84;100.00
71964;BME280;59834;52.124;5.422;2023-09-30T01:45:40;102554.91;;;10.82;100.00
71964;BME280;59834;52.124;5.422;2023-09-30T01:48:07;102560.16;;;10.82;100.00
71964;BME280;59834;52.124;5.422;2023-09-30T01:50:40;102561.28;;;10.75;100.00
71964;BME280;59834;52.124;5.422;2023-09-30T01:53:06;102569.25;;;10.72;100.00
71964;BME280;59834;52.124;5.422;2023-09-30T01:55:33;102570.16;;;10.71;100.00
71964;BME280;59834;52.124;5.422;2023-09-30T01:58:01;102563.13;;;10.73;100.00
71964;BME280;59834;52.124;5.422;2023-09-30T02:00:28;102551.00;;;10.71;100.00
71964;BME280;59834;52.124;5.422;2023-09-30T02:02:55;102538.81;;;10.70;100.00
71964;BME280;59834;52.124;5.422;2023-09-30T02:05:23;102538.97;;;10.65;100.00
71964;BME280;59834;52.124;5.422;2023-09-30T02:07:50;102539.06;;;10.62;100.00
71964;BME280;59834;52.124;5.422;2023-09-30T02:10:18;102535.72;;;10.58;100.00
71964;BME280;59834;52.124;5.422;2023-09-30T02:12:45;102547.13;;;10.57;100.00
71964;BME280;59834;52.124;5.422;2023-09-30T02:15:13;102554.13;;;10.57;100.00
71964;BME280;59834;52.124;5.422;2023-09-30T02:17:40;102568.06;;;10.57;100.00
71964;BME280;59834;52.124;5.422;2023-09-30T02:20:12;102560.25;;;10.56;100.00
71964;BME280;59834;52.124;5.422;2023-09-30T02:22:42;102560.41;;;10.51;100.00
71964;BME280;59834;52.124;5.422;2023-09-30T02:25:11;102547.44;;;10.48;100.00
71964;BME280;59834;52.124;5.422;2023-09-30T02:27:40;102548.28;;;10.49;100.00
71964;BME280;59834;52.124;5.422;2023-09-30T02:30:09;102562.22;;;10.49;100.00
71964;BME280;59834;52.124;5.422;2023-09-30T02:32:40;102556.03;;;10.52;100.00
71964;BME280;59834;52.124;5.422;2023-09-30T02:35:08;102551.50;;;10.57;100.00
71964;BME280;59834;52.124;5.422;2023-09-30T02:37:38;102557.50;;;10.59;100.00
71964;BME280;59834;52.124;5.422;2023-09-30T02:40:06;102547.97;;;10.58;100.00
71964;BME280;59834;52.124;5.422;2023-09-30T02:42:40;102548.06;;;10.55;100.00
71964;BME280;59834;52.124;5.422;2023-09-30T02:45:08;102542.91;;;10.53;100.00
71964;BME280;59834;52.124;5.422;2023-09-30T02:47:37;102548.06;;;10.55;100.00
71964;BME280;59834;52.124;5.422;2023-09-30T02:50:08;102544.50;;;10.57;100.00
71964;BME280;59834;52.124;5.422;2023-09-30T02:52:37;102541.75;;;10.60;100.00
71964;BME280;59834;52.124;5.422;2023-09-30T02:55:11;102540.81;;;10.63;100.00
71964;BME280;59834;52.124;5.422;2023-09-30T02:57:38;102539.88;;;10.64;100.00
71964;BME280;59834;52.124;5.422;2023-09-30T03:00:06;102540.81;;;10.63;100.00
71964;BME280;59834;52.124;5.422;2023-09-30T03:02:53;102549.56;;;10.62;100.00
71964;BME280;59834;52.124;5.422;2023-09-30T03:05:20;102545.16;;;10.62;100.00
71964;BME280;59834;52.124;5.422;2023-09-30T03:07:47;102545.06;;;10.66;100.00
71964;BME280;59834;52.124;5.422;2023-09-30T03:10:14;102545.78;;;10.69;100.00
71964;BME280;59834;52.124;5.422;2023-09-30T03:12:50;102546.72;;;10.68;100.00
71964;BME280;59834;52.124;5.422;2023-09-30T03:15:17;102550.06;;;10.72;100.00
71964;BME280;59834;52.124;5.422;2023-09-30T03:17:44;102553.44;;;10.75;100.00
71964;BME280;59834;52.124;5.422;2023-09-30T03:20:11;102544.66;;;10.76;100.00
71964;BME280;59834;52.124;5.422;2023-09-30T03:22:39;102540.22;;;10.78;100.00
71964;BME280;59834;52.124;5.422;2023-09-30T03:25:07;102536.75;;;10.78;100.00
71964;BME280;59834;52.124;5.422;2023-09-30T03:27:35;102535.91;;;10.77;100.00
71964;BME280;59834;52.124;5.422;2023-09-30T03:30:04;102535.09;;;10.75;100.00
71964;BME280;59834;52.124;5.422;2023-09-30T03:32:32;102541.25;;;10.74;100.00
71964;BME280;59834;52.124;5.422;2023-09-30T03:35:00;102537.06;;;10.70;100.00
71964;BME280;59834;52.124;5.422;2023-09-30T03:37:27;102537.06;;;10.70;100.00
71964;BME280;59834;52.124;5.422;2023-09-30T03:39:54;102541.38;;;10.71;100.00
71964;BME280;59834;52.124;5.422;2023-09-30T03:42:21;102543.03;;;10.74;100.00
71964;BME280;59834;52.124;5.422;2023-09-30T03:44:48;102532.47;;;10.75;100.00
71964;BME280;59834;52.124;5.422;2023-09-30T03:47:18;102540.34;;;10.75;100.00
71964;BME280;59834;52.124;5.422;2023-09-30T03:49:45;102538.63;;;10.74;100.00
71964;BME280;59834;52.124;5.422;2023-09-30T03:52:11;102538.63;;;10.74;100.00
71964;BME280;59834;52.124;5.422;2023-09-30T03:54:41;102542.94;;;10.75;100.00
71964;BME280;59834;52.124;5.422;2023-09-30T03:57:08;102536.03;;;10.74;100.00
71964;BME280;59834;52.124;5.422;2023-09-30T03:59:34;102542.03;;;10.76;100.00
71964;BME280;59834;52.124;5.422;2023-09-30T04:02:01;102539.47;;;10.75;100.00
71964;BME280;59834;52.124;5.422;2023-09-30T04:04:28;102543.88;;;10.74;100.00
71964;BME280;59834;52.124;5.422;2023-09-30T04:06:55;102537.81;;;10.72;100.00
71964;BME280;59834;52.124;5.422;2023-09-30T04:09:21;102538.75;;;10.71;100.00
71964;BME280;59834;52.124;5.422;2023-09-30T04:11:48;102543.91;;;10.73;100.00
71964;BME280;59834;52.124;5.422;2023-09-30T04:14:16;102540.34;;;10.75;100.00
71964;BME280;59834;52.124;5.422;2023-09-30T04:16:43;102547.41;;;10.73;100.00
71964;BME280;59834;52.124;5.422;2023-09-30T04:19:11;102544.09;;;10.68;100.00
71964;BME280;59834;52.124;5.422;2023-09-30T04:21:38;102549.44;;;10.65;100.00
71964;BME280;59834;52.124;5.422;2023-09-30T04:24:05;102541.59;;;10.65;100.00
71964;BME280;59834;52.124;5.422;2023-09-30T04:26:33;102544.22;;;10.65;100.00
71964;BME280;59834;52.124;5.422;2023-09-30T04:29:00;102544.22;;;10.65;100.00
71964;BME280;59834;52.124;5.422;2023-09-30T04:31:28;102542.41;;;10.67;100.00
71964;BME280;59834;52.124;5.422;2023-09-30T04:33:55;102554.56;;;10.68;100.00
71964;BME280;59834;52.124;5.422;2023-09-30T04:36:24;102554.56;;;10.68;100.00
71964;BME280;59834;52.124;5.422;2023-09-30T04:38:51;102558.22;;;10.64;100.00
71964;BME280;59834;52.124;5.422;2023-09-30T04:41:18;102560.13;;;10.59;100.00
71964;BME280;59834;52.124;5.422;2023-09-30T04:43:45;102566.34;;;10.56;100.00
71964;BME280;59834;52.124;5.422;2023-09-30T04:46:13;102561.13;;;10.56;100.00
71964;BME280;59834;52.124;5.422;2023-09-30T04:48:40;102562.81;;;10.57;100.00
71964;BME280;59834;52.124;5.422;2023-09-30T04:51:08;102562.84;;;10.56;100.00
71964;BME280;59834;52.124;5.422;2023-09-30T04:53:37;102561.91;;;10.58;100.00
71964;BME280;59834;52.124;5.422;2023-09-30T04:56:04;102561.16;;;10.55;100.00
71964;BME280;59834;52.124;5.422;2023-09-30T04:58:31;102566.41;;;10.55;100.00
71964;BME280;59834;52.124;5.422;2023-09-30T05:00:57;102569.13;;;10.52;100.00
71964;BME280;59834;52.124;5.422;2023-09-30T05:03:25;102571.84;;;10.49;100.00
71964;BME280;59834;52.124;5.422;2023-09-30T05:05:52;102582.31;;;10.49;100.00
71964;BME280;59834;52.124;5.422;2023-09-30T05:08:25;102578.00;;;10.48;100.00
71964;BME280;59834;52.124;5.422;2023-09-30T05:10:52;102570.16;;;10.48;100.00
71964;BME280;59834;52.124;5.422;2023-09-30T05:13:22;102581.66;;;10.44;100.00
71964;BME280;59834;52.124;5.422;2023-09-30T05:15:51;102582.66;;;10.40;100.00
71964;BME280;59834;52.124;5.422;2023-09-30T05:18:18;102578.41;;;10.35;100.00
71964;BME280;59834;52.124;5.422;2023-09-30T05:20:46;102574.16;;;10.33;100.00
71964;BME280;59834;52.124;5.422;2023-09-30T05:23:12;102576.81;;;10.31;100.00
71964;BME280;59834;52.124;5.422;2023-09-30T05:25:41;102571.59;;;10.31;100.00
71964;BME280;59834;52.124;5.422;2023-09-30T05:28:10;102567.19;;;10.32;100.00
71964;BME280;59834;52.124;5.422;2023-09-30T05:30:38;102573.38;;;10.29;100.00
71964;BME280;59834;52.124;5.422;2023-09-30T05:33:06;102585.59;;;10.30;100.00
71964;BME280;59834;52.124;5.422;2023-09-30T05:35:32;102577.78;;;10.29;100.00
71964;BME280;59834;52.124;5.422;2023-09-30T05:38:00;102580.47;;;10.27;100.00
71964;BME280;59834;52.124;5.422;2023-09-30T05:40:26;102581.25;;;10.29;100.00
71964;BME280;59834;52.124;5.422;2023-09-30T05:42:57;102581.31;;;10.28;100.00
71964;BME280;59834;52.124;5.422;2023-09-30T05:45:32;102594.47;;;10.26;100.00
71964;BME280;59834;52.124;5.422;2023-09-30T05:48:02;102590.00;;;10.28;100.00
71964;BME280;59834;52.124;5.422;2023-09-30T05:50:36;102587.34;;;10.30;100.00
71964;BME280;59834;52.124;5.422;2023-09-30T05:53:03;102582.03;;;10.33;100.00
71964;BME280;59834;52.124;5.422;2023-09-30T05:55:31;102578.69;;;10.28;100.00
71964;BME280;59834;52.124;5.422;2023-09-30T05:57:57;102579.69;;;10.24;100.00
71964;BME280;59834;52.124;5.422;2023-09-30T06:00:27;102587.56;;;10.22;100.00
71964;BME280;59834;52.124;5.422;2023-09-30T06:02:58;102579.63;;;10.25;100.00
71964;BME280;59834;52.124;5.422;2023-09-30T06:05:25;102580.34;;;10.30;100.00
71964;BME280;59834;52.124;5.422;2023-09-30T06:07:58;102581.84;;;10.37;100.00
71964;BME280;59834;52.124;5.422;2023-09-30T06:10:25;102586.06;;;10.42;100.00
71964;BME280;59834;52.124;5.422;2023-09-30T06:12:52;102588.66;;;10.43;100.00
71964;BME280;59834;52.124;5.422;2023-09-30T06:15:24;102589.50;;;10.44;100.00
71964;BME280;59834;52.124;5.422;2023-09-30T06:17:55;102585.00;;;10.47;100.00
71964;BME280;59834;52.124;5.422;2023-09-30T06:20:23;102583.97;;;10.51;100.00
71964;BME280;59834;52.124;5.422;2023-09-30T06:22:53;102581.19;;;10.56;100.00
71964;BME280;59834;52.124;5.422;2023-09-30T06:25:20;102572.34;;;10.60;100.00
71964;BME280;59834;52.124;5.422;2023-09-30T06:27:50;102581.72;;;10.66;100.00
71964;BME280;59834;52.124;5.422;2023-09-30T06:30:17;102576.22;;;10.73;100.00
71964;BME280;59834;52.124;5.422;2023-09-30T06:32:46;102595.19;;;10.80;100.00
71964;BME280;59834;52.124;5.422;2023-09-30T06:35:14;102596.66;;;10.87;100.00
71964;BME280;59834;52.124;5.422;2023-09-30T06:37:41;102600.81;;;10.93;100.00
71964;BME280;59834;52.124;5.422;2023-09-30T06:40:09;102601.41;;;11.01;100.00
71964;BME280;59834;52.124;5.422;2023-09-30T06:42:38;102608.16;;;11.06;100.00
71964;BME280;59834;52.124;5.422;2023-09-30T06:45:07;102614.03;;;11.13;100.00
71964;BME280;59834;52.124;5.422;2023-09-30T06:47:38;102624.28;;;11.19;100.00
71964;BME280;59834;52.124;5.422;2023-09-30T06:50:10;102617.13;;;11.24;100.00
71964;BME280;59834;52.124;5.422;2023-09-30T06:52:40;102622.00;;;11.33;100.00
71964;BME280;59834;52.124;5.422;2023-09-30T06:55:08;102618.34;;;11.38;100.00
71964;BME280;59834;52.124;5.422;2023-09-30T06:57:36;102624.13;;;11.46;100.00
71964;BME280;59834;52.124;5.422;2023-09-30T07:00:10;102622.88;;;11.56;100.00
71964;BME280;59834;52.124;5.422;2023-09-30T07:02:39;102633.81;;;11.67;100.00
71964;BME280;59834;52.124;5.422;2023-09-30T07:05:10;102635.19;;;11.76;100.00
71964;BME280;59834;52.124;5.422;2023-09-30T07:07:38;102640.13;;;11.84;100.00
71964;BME280;59834;52.124;5.422;2023-09-30T07:10:12;102644.28;;;11.91;100.00
71964;BME280;59834;52.124;5.422;2023-09-30T07:12:39;102646.50;;;12.00;100.00
71964;BME280;59834;52.124;5.422;2023-09-30T07:15:07;102659.25;;;12.09;100.00
71964;BME280;59834;52.124;5.422;2023-09-30T07:17:35;102653.53;;;12.21;100.00
71964;BME280;59834;52.124;5.422;2023-09-30T07:20:05;102657.47;;;12.32;100.00
71964;BME280;59834;52.124;5.422;2023-09-30T07:22:33;102650.84;;;12.43;100.00
71964;BME280;59834;52.124;5.422;2023-09-30T07:25:15;102651.25;;;12.55;100.00
71964;BME280;59834;52.124;5.422;2023-09-30T07:27:43;102648.16;;;12.65;100.00
71964;BME280;59834;52.124;5.422;2023-09-30T07:30:12;102663.53;;;12.74;100.00
71964;BME280;59834;52.124;5.422;2023-09-30T07:32:43;102663.09;;;12.84;100.00
71964;BME280;59834;52.124;5.422;2023-09-30T07:35:11;102661.91;;;12.91;100.00
71964;BME280;59834;52.124;5.422;2023-09-30T07:37:38;102666.75;;;13.00;100.00
71964;BME280;59834;52.124;5.422;2023-09-30T07:40:05;102669.91;;;13.08;100.00
71964;BME280;59834;52.124;5.422;2023-09-30T07:42:42;102666.84;;;13.17;100.00
71964;BME280;59834;52.124;5.422;2023-09-30T07:45:09;102666.56;;;13.25;100.00
71964;BME280;59834;52.124;5.422;2023-09-30T07:47:36;102667.88;;;13.34;100.00
71964;BME280;59834;52.124;5.422;2023-09-30T07:50:02;102673.66;;;13.42;100.00
71964;BME280;59834;52.124;5.422;2023-09-30T07:52:33;102678.47;;;13.51;100.00
71964;BME280;59834;52.124;5.422;2023-09-30T07:54:59;102678.84;;;13.62;100.00
71964;BME280;59834;52.124;5.422;2023-09-30T07:57:28;102674.06;;;13.71;100.00
71964;BME280;59834;52.124;5.422;2023-09-30T07:59:54;102676.25;;;13.80;100.00
71964;BME280;59834;52.124;5.422;2023-09-30T08:02:22;102675.19;;;13.84;100.00
71964;BME280;59834;52.124;5.422;2023-09-30T08:04:49;102675.53;;;13.95;100.00
71964;BME280;59834;52.124;5.422;2023-09-30T08:07:15;102667.25;;;14.03;100.00
71964;BME280;59834;52.124;5.422;2023-09-30T08:09:42;102669.34;;;14.13;100.00
71964;BME280;59834;52.124;5.422;2023-09-30T08:12:09;102664.78;;;14.17;100.00
71964;BME280;59834;52.124;5.422;2023-09-30T08:14:35;102660.16;;;14.22;100.00
71964;BME280;59834;52.124;5.422;2023-09-30T08:17:02;102658.94;;;14.29;100.00
71964;BME280;59834;52.124;5.422;2023-09-30T08:19:29;102659.31;;;14.39;100.00
71964;BME280;59834;52.124;5.422;2023-09-30T08:21:56;102651.97;;;14.46;100.00
71964;BME280;59834;52.124;5.422;2023-09-30T08:24:23;102652.28;;;14.57;100.00
71964;BME280;59834;52.124;5.422;2023-09-30T08:26:50;102647.28;;;14.68;100.00
71964;BME280;59834;52.124;5.422;2023-09-30T08:29:18;102642.19;;;14.82;100.00
71964;BME280;59834;52.124;5.422;2023-09-30T08:31:44;102639.28;;;14.87;100.00
71964;BME280;59834;52.124;5.422;2023-09-30T08:34:11;102649.66;;;14.90;100.00
71964;BME280;59834;52.124;5.422;2023-09-30T08:36:41;102647.31;;;15.01;100.00
71964;BME280;59834;52.124;5.422;2023-09-30T08:39:08;102657.38;;;15.11;100.00
71964;BME280;59834;52.124;5.422;2023-09-30T08:41:36;102657.47;;;15.25;100.00
71964;BME280;59834;52.124;5.422;2023-09-30T08:44:04;102662.66;;;15.42;100.00
71964;BME280;59834;52.124;5.422;2023-09-30T08:46:32;102661.94;;;15.56;100.00
71964;BME280;59834;52.124;5.422;2023-09-30T08:49:03;102660.53;;;15.65;100.00
71964;BME280;59834;52.124;5.422;2023-09-30T08:51:32;102664.06;;;15.81;100.00
71964;BME280;59834;52.124;5.422;2023-09-30T08:53:59;102656.19;;;15.95;100.00
71964;BME280;59834;52.124;5.422;2023-09-30T08:56:29;102655.56;;;16.06;99.94
71964;BME280;59834;52.124;5.422;2023-09-30T08:58:57;102660.97;;;16.05;99.67
71964;BME280;59834;52.124;5.422;2023-09-30T09:01:27;102664.78;;;16.15;99.10
71964;BME280;59834;52.124;5.422;2023-09-30T09:03:57;102665.38;;;16.20;99.59
71964;BME280;59834;52.124;5.422;2023-09-30T09:06:25;102666.88;;;16.24;98.61
71964;BME280;59834;52.124;5.422;2023-09-30T09:08:52;102664.91;;;16.27;97.78
71964;BME280;59834;52.124;5.422;2023-09-30T09:11:19;102667.56;;;16.27;96.95
71964;BME280;59834;52.124;5.422;2023-09-30T09:13:53;102675.38;;;16.29;97.54
71964;BME280;59834;52.124;5.422;2023-09-30T09:16:24;102676.91;;;16.33;96.65
71964;BME280;59834;52.124;5.422;2023-09-30T09:18:51;102688.06;;;16.38;96.90
71964;BME280;59834;52.124;5.422;2023-09-30T09:21:19;102693.75;;;16.46;96.01
71964;BME280;59834;52.124;5.422;2023-09-30T09:23:49;102690.28;;;16.60;95.30
71964;BME280;59834;52.124;5.422;2023-09-30T09:26:31;102693.97;;;16.72;95.29
71964;BME280;59834;52.124;5.422;2023-09-30T09:29:03;102704.16;;;16.94;94.36
71964;BME280;59834;52.124;5.422;2023-09-30T09:31:32;102704.94;;;17.10;92.52
71964;BME280;59834;52.124;5.422;2023-09-30T09:34:13;102710.47;;;17.20;90.99
71964;BME280;59834;52.124;5.422;2023-09-30T09:36:41;102714.75;;;17.23;89.80
71964;BME280;59834;52.124;5.422;2023-09-30T09:39:09;102713.72;;;17.25;89.79
71964;BME280;59834;52.124;5.422;2023-09-30T09:41:53;102712.56;;;17.29;89.31
71964;BME280;59834;52.124;5.422;2023-09-30T09:44:22;102705.28;;;17.47;89.17
71964;BME280;59834;52.124;5.422;2023-09-30T09:46:49;102716.13;;;17.71;88.51
71964;BME280;59834;52.124;5.422;2023-09-30T09:49:18;102718.38;;;17.63;88.09
71964;BME280;59834;52.124;5.422;2023-09-30T09:51:46;102717.25;;;17.53;89.27
71964;BME280;59834;52.124;5.422;2023-09-30T09:54:14;102718.41;;;17.49;88.74
71964;BME280;59834;52.124;5.422;2023-09-30T09:56:44;102715.09;;;17.45;89.20
71964;BME280;59834;52.124;5.422;2023-09-30T09:59:25;102710.59;;;17.47;89.32
71964;BME280;59834;52.124;5.422;2023-09-30T10:01:52;102719.25;;;17.49;88.13
71964;BME280;59834;52.124;5.422;2023-09-30T10:04:19;102726.25;;;17.64;85.65
71964;BME280;59834;52.124;5.422;2023-09-30T10:06:48;102730.19;;;17.86;85.52
71964;BME280;59834;52.124;5.422;2023-09-30T10:09:18;102730.44;;;17.96;82.27
71964;BME280;59834;52.124;5.422;2023-09-30T10:11:45;102711.41;;;18.03;84.13
71964;BME280;59834;52.124;5.422;2023-09-30T10:14:32;102710.69;;;18.14;83.32
71964;BME280;59834;52.124;5.422;2023-09-30T10:16:59;102704.84;;;18.09;80.36
71964;BME280;59834;52.124;5.422;2023-09-30T10:19:26;102700.84;;;18.16;78.27
71964;BME280;59834;52.124;5.422;2023-09-30T10:24:56;102694.00;;;18.39;77.93
71964;BME280;59834;52.124;5.422;2023-09-30T10:40:52;102670.47;;;18.34;75.78
71964;BME280;59834;52.124;5.422;2023-09-30T10:43:31;102676.38;;;18.25;77.09
71964;BME280;59834;52.124;5.422;2023-09-30T10:45:59;102686.03;;;18.26;77.73
71964;BME280;59834;52.124;5.422;2023-09-30T10:51:10;102671.41;;;18.33;77.04
71964;BME280;59834;52.124;5.422;2023-09-30T10:53:45;102678.84;;;18.28;77.63
71964;BME280;59834;52.124;5.422;2023-09-30T10:56:13;102681.66;;;18.12;76.51
71964;BME280;59834;52.124;5.422;2023-09-30T10:58:40;102679.63;;;18.16;75.64
71964;BME280;59834;52.124;5.422;2023-09-30T11:01:07;102663.13;;;18.25;74.58
71964;BME280;59834;52.124;5.422;2023-09-30T11:03:34;102674.81;;;18.35;73.60
71964;BME280;59834;52.124;5.422;2023-09-30T11:06:02;102672.69;;;18.28;74.38
71964;BME280;59834;52.124;5.422;2023-09-30T11:08:38;102664.66;;;18.55;74.64
71964;BME280;59834;52.124;5.422;2023-09-30T11:11:06;102659.25;;;18.56;74.31
71964;BME280;59834;52.124;5.422;2023-09-30T11:13:34;102667.84;;;18.60;74.81
71964;BME280;59834;52.124;5.422;2023-09-30T11:16:05;102672.06;;;18.50;74.01
71964;BME280;59834;52.124;5.422;2023-09-30T11:18:32;102669.41;;;18.37;74.36
71964;BME280;59834;52.124;5.422;2023-09-30T11:21:10;102673.59;;;18.14;75.77
71964;BME280;59834;52.124;5.422;2023-09-30T11:23:37;102668.34;;;18.00;76.51
71964;BME280;59834;52.124;5.422;2023-09-30T11:26:04;102668.09;;;17.90;76.58
71964;BME280;59834;52.124;5.422;2023-09-30T11:28:42;102664.47;;;17.78;76.01
71964;BME280;59834;52.124;5.422;2023-09-30T11:31:12;102665.22;;;17.66;75.39
71964;BME280;59834;52.124;5.422;2023-09-30T11:33:49;102660.44;;;17.58;75.88
71964;BME280;59834;52.124;5.422;2023-09-30T11:36:18;102662.81;;;17.49;77.24
71964;BME280;59834;52.124;5.422;2023-09-30T11:38:47;102645.44;;;17.44;75.88
71964;BME280;59834;52.124;5.422;2023-09-30T11:41:16;102644.25;;;17.63;75.43
71964;BME280;59834;52.124;5.422;2023-09-30T11:44:06;102639.22;;;18.00;75.25
71964;BME280;59834;52.124;5.422;2023-09-30T11:49:32;102646.69;;;18.33;73.34
71964;BME280;59834;52.124;5.422;2023-09-30T11:52:03;102651.91;;;18.34;73.77
71964;BME280;59834;52.124;5.422;2023-09-30T11:54:35;102657.84;;;18.25;74.41
71964;BME280;59834;52.124;5.422;2023-09-30T11:57:08;102666.75;;;18.24;73.98
71964;BME280;59834;52.124;5.422;2023-09-30T11:59:38;102654.56;;;18.34;73.18
71964;BME280;59834;52.124;5.422;2023-09-30T12:02:15;102651.81;;;18.49;73.26
71964;BME280;59834;52.124;5.422;2023-09-30T12:04:45;102651.91;;;18.60;70.36
71964;BME280;59834;52.124;5.422;2023-09-30T12:07:14;102641.72;;;18.54;66.91
71964;BME280;59834;52.124;5.422;2023-09-30T12:09:41;102634.94;;;18.50;67.34
71964;BME280;59834;52.124;5.422;2023-09-30T12:12:09;102629.84;;;18.47;66.00
71964;BME280;59834;52.124;5.422;2023-09-30T12:14:37;102630.25;;;18.41;65.85
71964;BME280;59834;52.124;5.422;2023-09-30T12:17:04;102625.41;;;18.34;65.36
71964;BME280;59834;52.124;5.422;2023-09-30T12:19:31;102630.47;;;18.37;68.17
71964;BME280;59834;52.124;5.422;2023-09-30T12:22:00;102630.59;;;18.36;68.44
71964;BME280;59834;52.124;5.422;2023-09-30T12:24:28;102624.97;;;18.41;67.59
71964;BME280;59834;52.124;5.422;2023-09-30T12:26:54;102615.22;;;18.54;64.75
71964;BME280;59834;52.124;5.422;2023-09-30T12:29:22;102607.25;;;18.67;65.29
71964;BME280;59834;52.124;5.422;2023-09-30T12:31:52;102602.94;;;18.78;66.51
71964;BME280;59834;52.124;5.422;2023-09-30T12:34:21;102613.78;;;18.75;65.43
71964;BME280;59834;52.124;5.422;2023-09-30T12:36:54;102606.22;;;18.69;64.84
71964;BME280;59834;52.124;5.422;2023-09-30T12:39:22;102612.06;;;18.61;64.64
71964;BME280;59834;52.124;5.422;2023-09-30T12:41:52;102608.84;;;18.56;64.06
71964;BME280;59834;52.124;5.422;2023-09-30T12:44:18;102614.78;;;18.60;65.23
71964;BME280;59834;52.124;5.422;2023-09-30T12:46:46;102609.06;;;18.66;64.73
71964;BME280;59834;52.124;5.422;2023-09-30T12:49:12;102607.91;;;18.96;65.19
71964;BME280;59834;52.124;5.422;2023-09-30T12:51:40;102607.97;;;19.07;63.06
71964;BME280;59834;52.124;5.422;2023-09-30T12:54:07;102605.91;;;18.87;62.33
71964;BME280;59834;52.124;5.422;2023-09-30T12:56:35;102609.81;;;18.81;63.12
71964;BME280;59834;52.124;5.422;2023-09-30T12:59:01;102618.09;;;18.76;63.96
71964;BME280;59834;52.124;5.422;2023-09-30T13:01:29;102619.06;;;18.75;64.77
71964;BME280;59834;52.124;5.422;2023-09-30T13:03:58;102613.56;;;18.78;64.30
71964;BME280;59834;52.124;5.422;2023-09-30T13:06:25;102608.88;;;18.95;64.12
71964;BME280;59834;52.124;5.422;2023-09-30T13:08:52;102607.78;;;18.97;64.13
71964;BME280;59834;52.124;5.422;2023-09-30T13:11:19;102608.34;;;18.90;64.34